createdAt,value
2023-01-19T00:01:58.947Z,90.85
2023-01-19T00:05:02.008Z,90.98
2023-01-19T00:08:17.758Z,90.26
2023-01-19T00:11:20.547Z,90.35
2023-01-19T00:14:23.010Z,90.03
2023-01-19T00:17:25.485Z,90.10
2023-01-19T00:20:28.053Z,90.16
2023-01-19T00:23:30.457Z,90.21
2023-01-19T00:26:32.973Z,90.51
2023-01-19T00:29:35.514Z,90.76
2023-01-19T00:32:37.942Z,89.80
2023-01-19T00:35:42.520Z,90.30
2023-01-19T00:38:45.033Z,90.64
2023-01-19T00:42:05.842Z,90.88
2023-01-19T00:45:10.250Z,90.35
2023-01-19T00:48:12.721Z,90.98
2023-01-19T00:51:15.191Z,90.65
2023-01-19T00:54:17.785Z,90.47
2023-01-19T00:57:20.343Z,90.20
2023-01-19T01:00:23.380Z,90.83
2023-01-19T01:03:28.150Z,90.33
2023-01-19T01:06:31.013Z,90.57
2023-01-19T01:09:33.569Z,90.57
2023-01-19T01:12:36.753Z,90.41
2023-01-19T01:15:39.320Z,89.94
2023-01-19T01:18:42.898Z,90.42
2023-01-19T01:21:45.406Z,90.08
2023-01-19T01:24:47.908Z,90.20
2023-01-19T01:27:50.581Z,90.71
2023-01-19T01:30:55.066Z,90.17
2023-01-19T01:33:57.642Z,90.22
2023-01-19T01:37:00.137Z,90.68
2023-01-19T01:40:02.894Z,90.73
2023-01-19T01:43:11.841Z,91.01
2023-01-19T01:46:17.413Z,90.18
2023-01-19T01:49:20.193Z,90.19
2023-01-19T01:52:25.372Z,90.16
2023-01-19T01:55:29.532Z,89.36
2023-01-19T01:58:33.571Z,89.81
2023-01-19T02:01:55.678Z,90.20
2023-01-19T02:05:07.779Z,89.53
2023-01-19T02:08:34.868Z,89.67
2023-01-19T02:11:56.963Z,89.78
2023-01-19T02:14:59.397Z,90.17
2023-01-19T02:18:02.016Z,89.57
2023-01-19T02:21:18.994Z,89.59
2023-01-19T02:24:21.962Z,89.56
2023-01-19T02:27:24.572Z,89.66
2023-01-19T02:30:27.955Z,89.30
2023-01-19T02:33:30.686Z,88.83
2023-01-19T02:36:41.205Z,88.80
2023-01-19T02:39:50.661Z,88.56
2023-01-19T02:42:58.726Z,89.66
2023-01-19T02:46:01.459Z,88.48
2023-01-19T02:49:04.059Z,88.92
2023-01-19T02:52:15.981Z,88.37
2023-01-19T02:55:25.704Z,88.63
2023-01-19T02:58:46.461Z,89.57
2023-01-19T03:02:00.526Z,89.83
2023-01-19T03:05:27.280Z,89.49
2023-01-19T03:08:53.031Z,89.59
2023-01-19T03:12:05.030Z,89.54
2023-01-19T03:15:18.129Z,89.14
2023-01-19T03:18:24.510Z,89.17
2023-01-19T03:21:29.683Z,89.31
2023-01-19T03:24:37.109Z,89.24
2023-01-19T03:27:43.573Z,88.50
2023-01-19T03:30:56.643Z,89.52
2023-01-19T03:34:08.241Z,89.67
2023-01-19T03:37:11.612Z,88.88
2023-01-19T03:40:14.393Z,89.31
2023-01-19T03:43:18.636Z,89.36
2023-01-19T03:46:22.651Z,88.76
2023-01-19T03:49:25.277Z,89.00
2023-01-19T03:52:33.623Z,89.37
2023-01-19T03:55:38.219Z,89.63
2023-01-19T03:58:40.754Z,89.32
2023-01-19T04:01:43.618Z,89.24
2023-01-19T04:04:46.377Z,89.74
2023-01-19T04:07:49.881Z,89.19
2023-01-19T04:10:52.339Z,89.00
2023-01-19T04:13:54.861Z,89.02
2023-01-19T04:16:57.410Z,89.19
2023-01-19T04:20:00.479Z,89.36
2023-01-19T04:23:03.464Z,88.97
2023-01-19T04:26:08.054Z,89.12
2023-01-19T04:29:10.903Z,89.56
2023-01-19T04:32:14.696Z,89.09
2023-01-19T04:35:17.555Z,88.80
2023-01-19T04:38:20.855Z,88.91
2023-01-19T04:41:23.350Z,88.67
2023-01-19T04:44:25.823Z,89.00
2023-01-19T04:47:28.254Z,89.19
2023-01-19T04:50:30.884Z,88.38
2023-01-19T04:53:33.365Z,88.72
2023-01-19T04:56:36.648Z,89.66
2023-01-19T04:59:39.122Z,88.32
2023-01-19T05:02:45.389Z,88.18
2023-01-19T05:05:48.042Z,88.26
2023-01-19T05:08:50.940Z,87.80
2023-01-19T05:11:53.437Z,87.72
2023-01-19T05:14:55.909Z,87.91
2023-01-19T05:17:58.629Z,88.42
2023-01-19T05:21:02.939Z,88.26
2023-01-19T05:24:05.727Z,88.46
2023-01-19T05:27:08.586Z,88.05
2023-01-19T05:30:13.367Z,88.75
2023-01-19T05:33:15.860Z,88.40
2023-01-19T05:36:18.267Z,88.42
2023-01-19T05:39:21.060Z,88.56
2023-01-19T05:42:23.498Z,88.41
2023-01-19T05:45:27.502Z,89.02
2023-01-19T05:48:30.325Z,87.75
2023-01-19T05:51:35.212Z,87.04
2023-01-19T05:54:40.338Z,86.38
2023-01-19T05:57:43.422Z,86.57
2023-01-19T06:00:45.992Z,85.85
2023-01-19T06:03:48.953Z,86.30
2023-01-19T06:06:51.880Z,86.10
2023-01-19T06:09:54.468Z,85.81
2023-01-19T06:12:57.147Z,86.50
2023-01-19T06:16:01.180Z,86.45
2023-01-19T06:19:04.016Z,86.47
2023-01-19T06:22:06.724Z,85.62
2023-01-19T06:25:09.728Z,86.11
2023-01-19T06:28:12.165Z,86.40
2023-01-19T06:31:14.802Z,86.02
2023-01-19T06:34:17.515Z,85.94
2023-01-19T06:37:20.073Z,86.10
2023-01-19T06:40:22.669Z,85.36
2023-01-19T06:43:26.812Z,86.04
2023-01-19T06:46:29.700Z,86.01
2023-01-19T06:49:33.245Z,86.38
2023-01-19T06:52:42.395Z,85.93
2023-01-19T06:55:44.993Z,86.29
2023-01-19T06:58:48.289Z,86.25
2023-01-19T07:01:51.359Z,85.69
2023-01-19T07:04:55.424Z,86.36
2023-01-19T07:08:00.102Z,86.45
2023-01-19T07:11:26.815Z,86.66
2023-01-19T07:14:34.074Z,86.39
2023-01-19T07:17:36.521Z,86.23
2023-01-19T07:20:39.512Z,86.31
2023-01-19T07:23:43.422Z,85.27
2023-01-19T07:26:45.980Z,85.15
2023-01-19T07:29:48.542Z,83.97
2023-01-19T07:32:51.049Z,83.89
2023-01-19T07:35:53.669Z,84.00
2023-01-19T07:38:56.588Z,83.92
2023-01-19T07:41:59.257Z,83.47
2023-01-19T07:45:01.732Z,83.14
2023-01-19T07:48:05.338Z,83.33
2023-01-19T07:51:12.980Z,83.94
2023-01-19T07:54:15.824Z,83.77
2023-01-19T07:57:19.300Z,83.52
2023-01-19T08:00:24.769Z,84.00
2023-01-19T08:03:27.399Z,84.79
2023-01-19T08:06:34.134Z,84.76
2023-01-19T08:09:36.632Z,84.57
2023-01-19T08:12:39.401Z,85.70
2023-01-19T08:15:41.935Z,84.80
2023-01-19T08:18:44.548Z,84.42
2023-01-19T08:21:47.059Z,85.65
2023-01-19T08:24:50.438Z,85.43
2023-01-19T08:27:56.152Z,83.93
2023-01-19T08:31:05.348Z,84.30
2023-01-19T08:34:17.119Z,84.45
2023-01-19T08:37:19.628Z,84.75
2023-01-19T08:40:22.255Z,84.73
2023-01-19T08:43:25.058Z,83.91
2023-01-19T08:46:27.698Z,84.18
2023-01-19T08:49:30.510Z,84.54
2023-01-19T08:52:33.001Z,85.25
2023-01-19T08:55:36.510Z,84.63
2023-01-19T08:58:43.212Z,85.01
2023-01-19T09:01:46.066Z,85.77
2023-01-19T09:04:50.293Z,85.24
2023-01-19T09:07:52.813Z,84.58
2023-01-19T09:10:55.549Z,85.23
2023-01-19T09:13:58.117Z,86.03
2023-01-19T09:17:00.696Z,86.47
2023-01-19T09:20:04.568Z,86.54
2023-01-19T09:23:07.527Z,86.54
2023-01-19T09:26:10.321Z,86.51
2023-01-19T09:29:12.954Z,86.63
2023-01-19T09:32:16.657Z,87.29
2023-01-19T09:35:19.559Z,86.89
2023-01-19T09:38:23.357Z,86.86
2023-01-19T09:41:28.895Z,85.93
2023-01-19T09:44:35.574Z,85.67
2023-01-19T09:47:39.359Z,85.41
2023-01-19T09:50:46.749Z,86.81
2023-01-19T09:53:56.381Z,86.00
2023-01-19T09:56:58.961Z,87.35
2023-01-19T10:00:01.641Z,86.48
2023-01-19T10:03:15.674Z,86.90
2023-01-19T10:06:18.721Z,86.16
2023-01-19T10:09:33.729Z,85.43
2023-01-19T10:12:51.075Z,86.76
2023-01-19T10:16:19.553Z,86.10
2023-01-19T10:19:33.769Z,86.18
2023-01-19T10:22:36.458Z,87.25
2023-01-19T10:25:39.437Z,86.44
2023-01-19T10:28:43.409Z,86.65
2023-01-19T10:31:46.777Z,87.26
2023-01-19T10:34:50.658Z,86.74
2023-01-19T10:37:57.900Z,86.35
2023-01-19T10:41:14.777Z,86.93
2023-01-19T10:44:28.553Z,86.27
2023-01-19T10:47:35.315Z,86.78
2023-01-19T10:50:41.424Z,85.70
2023-01-19T10:53:57.299Z,86.77
2023-01-19T10:57:07.405Z,86.84
2023-01-19T11:00:40.444Z,86.51
2023-01-19T11:03:43.724Z,86.36
2023-01-19T11:06:46.221Z,85.43
2023-01-19T11:09:50.663Z,86.03
2023-01-19T11:13:07.402Z,85.84
2023-01-19T11:16:25.491Z,85.93
2023-01-19T11:19:33.645Z,85.61
2023-01-19T11:22:36.179Z,85.28
2023-01-19T11:25:38.889Z,82.66
2023-01-19T11:28:47.659Z,84.61
2023-01-19T11:31:51.606Z,84.52
2023-01-19T11:34:54.197Z,86.24
2023-01-19T11:38:11.821Z,85.78
2023-01-19T11:41:23.030Z,84.10
2023-01-19T11:44:39.243Z,84.14
2023-01-19T11:47:44.635Z,84.25
2023-01-19T11:50:49.373Z,85.31
2023-01-19T11:53:53.442Z,83.61
2023-01-19T11:56:58.967Z,84.76
2023-01-19T12:00:05.221Z,84.62
2023-01-19T12:03:17.312Z,84.63
2023-01-19T12:06:26.082Z,84.85
2023-01-19T12:09:35.124Z,83.44
2023-01-19T12:12:40.510Z,83.87
2023-01-19T12:15:44.567Z,84.16
2023-01-19T12:19:18.290Z,85.11
2023-01-19T12:22:22.650Z,83.30
2023-01-19T12:30:52.206Z,83.15
2023-01-19T12:33:55.145Z,83.03
2023-01-19T12:37:02.922Z,82.45
2023-01-19T12:40:27.893Z,82.63
2023-01-19T12:43:30.638Z,82.00
2023-01-19T12:46:33.408Z,81.94
2023-01-19T12:49:38.887Z,84.18
2023-01-19T13:33:20.677Z,85.18
2023-01-19T13:36:28.415Z,84.90
2023-01-19T13:39:44.248Z,85.96
2023-01-19T13:42:48.262Z,86.23
2023-01-19T13:45:53.458Z,86.51
2023-01-19T13:49:04.654Z,87.03
2023-01-19T13:52:11.559Z,86.52
2023-01-19T13:55:15.793Z,87.36
2023-01-19T13:58:24.648Z,86.46
2023-01-19T14:01:29.359Z,86.45
2023-01-19T14:04:35.413Z,86.90
2023-01-19T14:07:37.929Z,86.56
2023-01-19T14:10:47.847Z,86.12
2023-01-19T14:13:50.298Z,86.90
2023-01-19T14:16:53.077Z,86.43
2023-01-19T14:19:57.911Z,86.45
2023-01-19T14:23:00.499Z,86.91
2023-01-19T14:26:03.038Z,86.16
2023-01-19T14:29:29.549Z,86.22
2023-01-19T14:32:45.414Z,86.17
2023-01-19T14:35:47.912Z,84.45
2023-01-19T14:38:52.317Z,84.19
2023-01-19T14:41:57.562Z,85.13
2023-01-19T14:45:02.760Z,85.83
2023-01-19T14:48:17.807Z,86.06
2023-01-19T14:51:23.909Z,85.84
2023-01-19T14:54:40.954Z,85.34
2023-01-19T14:57:43.489Z,85.01
2023-01-19T15:00:47.064Z,84.07
2023-01-19T15:03:49.498Z,84.67
2023-01-19T15:06:54.780Z,84.74
2023-01-19T15:09:58.960Z,84.29
2023-01-19T15:13:01.674Z,84.57
2023-01-19T15:16:04.365Z,85.58
2023-01-19T15:19:09.546Z,83.86
2023-01-19T15:22:13.447Z,86.45
2023-01-19T15:25:19.364Z,83.93
2023-01-19T15:28:22.147Z,84.77
2023-01-19T15:31:26.299Z,83.50
2023-01-19T15:34:28.809Z,84.58
2023-01-19T15:37:33.064Z,84.23
2023-01-19T15:40:35.682Z,85.52
2023-01-19T15:43:38.184Z,85.49
2023-01-19T15:46:40.759Z,85.58
2023-01-19T15:49:43.238Z,84.89
2023-01-19T15:52:46.145Z,85.23
2023-01-19T15:55:50.854Z,84.42
2023-01-19T15:58:55.001Z,85.62
2023-01-19T16:01:58.219Z,86.24
2023-01-19T16:05:01.475Z,85.28
2023-01-19T16:08:04.463Z,85.31
2023-01-19T16:11:10.018Z,85.06
2023-01-19T16:14:13.001Z,86.28
2023-01-19T16:17:15.574Z,86.80
2023-01-19T16:20:18.517Z,85.14
2023-01-19T16:23:21.255Z,84.73
2023-01-19T16:26:34.498Z,84.71
2023-01-19T16:29:37.962Z,84.94
2023-01-19T16:32:40.463Z,85.62
2023-01-19T16:35:43.421Z,84.57
2023-01-19T16:38:46.070Z,85.42
2023-01-19T16:41:48.706Z,85.35
2023-01-19T16:44:51.186Z,84.96
2023-01-19T16:47:53.737Z,84.75
2023-01-19T16:51:06.202Z,84.13
2023-01-19T16:54:13.748Z,84.73
2023-01-19T16:57:16.853Z,85.16
2023-01-19T17:00:19.900Z,85.62
2023-01-19T17:03:22.619Z,84.76
2023-01-19T17:06:25.582Z,84.45
2023-01-19T17:09:28.636Z,84.30
2023-01-19T17:12:32.313Z,84.54
2023-01-19T17:15:35.211Z,84.66
2023-01-19T17:18:38.343Z,84.21
2023-01-19T17:21:43.293Z,85.13
2023-01-19T17:24:46.675Z,84.25
2023-01-19T17:27:49.619Z,84.45
2023-01-19T17:30:52.536Z,84.57
2023-01-19T17:33:55.411Z,82.69
2023-01-19T17:37:03.094Z,83.06
2023-01-19T17:40:06.654Z,84.20
2023-01-19T17:43:09.335Z,83.62
2023-01-19T17:46:12.619Z,84.33
2023-01-19T17:49:15.557Z,84.25
2023-01-19T17:52:18.698Z,84.40
2023-01-19T17:55:21.380Z,84.28
2023-01-19T17:58:24.085Z,84.14
2023-01-19T18:01:29.504Z,84.75
2023-01-19T18:04:32.367Z,84.41
2023-01-19T18:07:35.293Z,84.83
2023-01-19T18:10:38.181Z,84.08
2023-01-19T18:13:43.254Z,84.22
2023-01-19T18:16:45.968Z,84.47
2023-01-19T18:19:49.197Z,84.60
2023-01-19T18:22:51.978Z,84.99
2023-01-19T18:26:02.251Z,84.28
2023-01-19T18:29:05.448Z,84.62
2023-01-19T18:32:08.474Z,84.37
2023-01-19T18:35:11.304Z,83.14
2023-01-19T18:38:14.326Z,83.72
2023-01-19T18:41:19.759Z,83.28
2023-01-19T18:44:22.892Z,83.97
2023-01-19T18:47:25.712Z,83.13
2023-01-19T18:50:28.976Z,82.99
2023-01-19T18:53:32.422Z,82.67
2023-01-19T18:56:35.231Z,83.42
2023-01-19T18:59:38.092Z,83.70
2023-01-19T19:02:41.146Z,83.88
2023-01-19T19:05:44.422Z,83.33
2023-01-19T19:08:51.453Z,83.43
2023-01-19T19:11:54.229Z,83.55
2023-01-19T19:14:57.259Z,83.57
2023-01-19T19:18:00.144Z,83.44
2023-01-19T19:21:06.556Z,83.54
2023-01-19T19:24:11.279Z,83.52
2023-01-19T19:27:14.478Z,83.22
2023-01-19T19:30:17.608Z,84.37
2023-01-19T19:33:23.906Z,83.21
2023-01-19T19:36:28.659Z,83.21
2023-01-19T19:39:31.182Z,83.02
2023-01-19T19:42:34.776Z,83.78
2023-01-19T19:45:38.659Z,82.92
2023-01-19T19:48:42.373Z,83.08
2023-01-19T19:51:45.211Z,83.31
2023-01-19T19:54:48.986Z,82.65
2023-01-19T19:57:52.692Z,82.91
2023-01-19T20:00:55.901Z,82.36
2023-01-19T20:04:03.792Z,82.63
2023-01-19T20:07:06.507Z,82.88
2023-01-19T20:10:10.079Z,82.98
2023-01-19T20:13:13.654Z,82.43
2023-01-19T20:16:18.607Z,81.81
2023-01-19T20:19:22.625Z,81.51
2023-01-19T20:22:25.793Z,81.75
2023-01-19T20:25:28.844Z,82.34
2023-01-19T20:28:31.908Z,82.95
2023-01-19T20:31:38.545Z,82.51
2023-01-19T20:34:41.393Z,82.12
2023-01-19T20:37:44.182Z,82.56
2023-01-19T20:40:46.956Z,81.89
2023-01-19T20:43:50.317Z,82.08
2023-01-19T20:46:54.397Z,82.73
2023-01-19T20:49:57.375Z,82.83
2023-01-19T20:52:59.892Z,82.05
2023-01-19T20:56:07.247Z,81.19
2023-01-19T20:59:11.528Z,82.20
2023-01-19T21:02:16.860Z,82.32
2023-01-19T21:05:19.893Z,81.95
2023-01-19T21:08:22.767Z,81.93
2023-01-19T21:11:26.126Z,81.66
2023-01-19T21:14:28.878Z,81.49
2023-01-19T21:17:31.427Z,81.46
2023-01-19T21:20:33.885Z,81.21
2023-01-19T21:23:36.360Z,81.55
2023-01-19T21:26:39.065Z,81.23
2023-01-19T21:29:42.005Z,82.16
2023-01-19T21:32:44.738Z,81.55
2023-01-19T21:35:55.623Z,81.63
2023-01-19T21:39:00.871Z,81.56
2023-01-19T21:42:03.643Z,80.79
2023-01-19T21:45:08.301Z,81.17
2023-01-19T21:48:10.911Z,81.76
2023-01-19T21:51:14.668Z,83.37
2023-01-19T21:54:17.316Z,83.80
2023-01-19T21:57:19.911Z,83.82
2023-01-19T22:00:22.648Z,84.71
2023-01-19T22:03:27.352Z,84.19
2023-01-19T22:06:30.208Z,83.89
2023-01-19T22:09:36.323Z,83.80
2023-01-19T22:12:40.440Z,84.44
2023-01-19T22:15:42.902Z,82.01
2023-01-19T22:18:50.234Z,82.56
2023-01-19T22:21:53.280Z,81.75
2023-01-19T22:24:55.833Z,82.02
2023-01-19T22:27:59.343Z,83.11
2023-01-19T22:31:10.214Z,84.00
2023-01-19T22:34:13.617Z,83.69
2023-01-19T22:37:16.085Z,83.59
2023-01-19T22:40:18.843Z,82.96
2023-01-19T22:43:21.361Z,83.43
2023-01-19T22:46:27.118Z,82.92
2023-01-19T22:49:29.855Z,82.18
2023-01-19T22:52:32.470Z,83.11
2023-01-19T22:55:34.914Z,82.74
2023-01-19T22:58:37.935Z,82.22
2023-01-19T23:01:43.003Z,82.41
2023-01-19T23:04:45.491Z,82.92
2023-01-19T23:07:47.993Z,82.53
2023-01-19T23:10:50.445Z,82.94
2023-01-19T23:13:53.200Z,82.71
2023-01-19T23:16:55.723Z,82.92
2023-01-19T23:19:58.188Z,83.40
2023-01-19T23:23:01.137Z,83.92
2023-01-19T23:26:18.385Z,83.74
2023-01-19T23:29:21.118Z,83.51
2023-01-19T23:32:23.867Z,83.53
2023-01-19T23:35:26.586Z,83.33
2023-01-19T23:38:29.098Z,82.72
2023-01-19T23:41:34.651Z,83.36
2023-01-19T23:44:37.177Z,83.48
2023-01-19T23:47:43.236Z,83.64
2023-01-19T23:50:45.797Z,82.79
2023-01-19T23:53:49.153Z,83.90
2023-01-19T23:56:51.605Z,82.74
2023-01-19T23:59:54.437Z,82.94
